In Rescue
 
Open Full Screen Window  High Contrast Mode
July 14, 2020 12:08 AM EDT
Weather Information
Wind Direction
  ---
Wind Speed
  00 kt (0 mph)
Wind Gust
  00 kt (0 mph)
Altimeter
29.90 in
Visibility
10 SM
Temperature
18° C
64° F
Dewpoint
16° C
61° F
Humidity
88%
Sky Condition
Clear
VFR

METAR KCDA 140408Z AUTO 00000KT 10SM CLR 18/16 A2990 RMK AO2 T01760163

FAA Disclaimer: The data displayed is for advisory purposes only and is not to be used for flight planning or operations.